createdAt,value
2022-09-21T00:02:25.427Z,1.75
2022-09-21T00:07:29.381Z,2.10
2022-09-21T00:12:33.549Z,1.60
2022-09-21T00:17:39.351Z,1.70
2022-09-21T00:22:43.233Z,1.55
2022-09-21T00:27:51.468Z,1.90
2022-09-21T00:32:56.692Z,1.80
2022-09-21T00:38:02.685Z,1.98
2022-09-21T00:43:14.204Z,1.52
2022-09-21T00:48:19.703Z,1.77
2022-09-21T00:53:23.898Z,1.58
2022-09-21T00:58:31.147Z,2.70
2022-09-21T01:03:36.449Z,1.70
2022-09-21T01:08:41.582Z,1.67
2022-09-21T01:13:59.345Z,2.90
2022-09-21T01:19:24.171Z,1.88
2022-09-21T01:24:44.242Z,1.60
2022-09-21T01:29:54.223Z,1.70
2022-09-21T01:35:03.066Z,1.67
2022-09-21T01:40:13.253Z,2.88
2022-09-21T01:45:21.313Z,1.92
2022-09-21T01:50:27.123Z,1.92
2022-09-21T01:55:36.061Z,2.05
2022-09-21T02:00:43.319Z,2.35
2022-09-21T02:05:46.854Z,1.60
2022-09-21T02:10:52.665Z,1.70
2022-09-21T02:16:12.909Z,1.70
2022-09-21T02:21:25.490Z,1.73
2022-09-21T02:26:36.066Z,1.88
2022-09-21T02:31:48.207Z,1.30
2022-09-21T02:36:56.973Z,1.58
2022-09-21T02:42:08.679Z,1.73
2022-09-21T02:47:19.854Z,1.48
2022-09-21T02:57:27.570Z,1.77
2022-09-21T03:02:39.398Z,2.00
2022-09-21T03:07:43.011Z,1.55
2022-09-21T03:12:46.872Z,1.50
2022-09-21T03:17:51.671Z,1.88
2022-09-21T03:22:55.114Z,1.75
2022-09-21T03:27:59.125Z,1.60
2022-09-21T03:33:05.133Z,1.52
2022-09-21T03:38:08.841Z,1.80
2022-09-21T03:43:12.241Z,1.83
2022-09-21T03:48:17.047Z,1.50
2022-09-21T03:53:20.451Z,1.30
2022-09-21T03:58:23.894Z,1.85
2022-09-21T04:03:28.670Z,1.83
2022-09-21T04:08:33.558Z,1.95
2022-09-21T04:13:36.961Z,1.55
2022-09-21T04:18:41.845Z,1.75
2022-09-21T04:23:45.510Z,1.67
2022-09-21T04:28:48.894Z,1.95
2022-09-21T04:33:55.329Z,1.65
2022-09-21T04:38:59.095Z,2.22
2022-09-21T04:44:03.044Z,1.77
2022-09-21T04:49:08.801Z,1.70
2022-09-21T04:54:12.301Z,2.42
2022-09-21T04:59:15.674Z,1.55
2022-09-21T05:04:20.418Z,1.92
2022-09-21T05:09:41.406Z,2.20
2022-09-21T05:14:45.086Z,2.17
2022-09-21T05:19:49.892Z,2.03
2022-09-21T05:24:53.313Z,2.45
2022-09-21T05:29:57.203Z,2.20
2022-09-21T05:35:11.913Z,2.80
2022-09-21T05:40:16.084Z,2.60
2022-09-21T05:45:21.139Z,2.92
2022-09-21T05:50:41.601Z,2.92
2022-09-21T05:55:53.620Z,3.40
2022-09-21T06:01:13.150Z,2.97
2022-09-21T06:06:18.656Z,2.65
2022-09-21T06:11:22.355Z,3.40
2022-09-21T06:16:25.850Z,3.90
2022-09-21T06:21:30.649Z,3.30
2022-09-21T06:26:34.211Z,10.25
2022-09-21T06:31:37.715Z,6.15
2022-09-21T06:36:42.580Z,7.00
2022-09-21T06:41:45.999Z,6.40
2022-09-21T06:46:49.767Z,5.47
2022-09-21T06:51:54.652Z,6.75
2022-09-21T06:57:00.167Z,6.30
2022-09-21T07:02:03.886Z,6.07
2022-09-21T07:07:09.026Z,6.50
2022-09-21T07:12:15.055Z,7.32
2022-09-21T07:17:19.393Z,6.43
2022-09-21T07:22:24.562Z,6.80
2022-09-21T07:27:30.537Z,9.30
2022-09-21T07:32:34.115Z,12.45
2022-09-21T07:37:39.028Z,13.13
2022-09-21T07:42:44.990Z,13.23
2022-09-21T07:47:48.635Z,10.23
2022-09-21T07:52:53.475Z,7.45
2022-09-21T07:58:14.446Z,7.05
2022-09-21T08:03:18.183Z,5.18
2022-09-21T08:08:23.003Z,5.32
2022-09-21T08:13:26.461Z,4.50
2022-09-21T08:18:30.695Z,4.38
2022-09-21T08:23:40.339Z,4.18
2022-09-21T08:28:44.625Z,4.13
2022-09-21T08:33:48.284Z,4.47
2022-09-21T08:38:55.191Z,4.32
2022-09-21T09:22:18.990Z,2.70
2022-09-21T09:27:28.576Z,2.15
2022-09-21T09:32:40.396Z,4.13
2022-09-21T09:37:48.455Z,2.60
2022-09-21T09:43:04.897Z,2.47
2022-09-21T09:53:49.353Z,1.67
2022-09-21T09:58:57.647Z,2.33
2022-09-21T10:04:07.263Z,1.20
2022-09-21T10:09:25.956Z,1.80
2022-09-21T10:14:35.388Z,1.85
2022-09-21T10:19:39.087Z,1.55
2022-09-21T10:24:48.952Z,1.02
2022-09-21T10:29:52.543Z,1.00
2022-09-21T10:35:14.433Z,1.33
2022-09-21T10:40:28.352Z,1.00
2022-09-21T10:45:35.474Z,1.58
2022-09-21T10:50:41.735Z,1.33
2022-09-21T10:56:11.748Z,7.13
2022-09-21T11:01:29.256Z,1.17
2022-09-21T11:06:38.068Z,0.88
2022-09-21T11:11:51.256Z,1.17
2022-09-21T11:17:01.210Z,1.08
2022-09-21T11:22:10.387Z,0.68
2022-09-21T11:27:24.527Z,0.98
2022-09-21T11:32:42.656Z,0.73
2022-09-21T11:37:56.085Z,0.50
2022-09-21T11:43:15.369Z,0.47
2022-09-21T11:48:29.565Z,0.65
2022-09-21T11:53:46.844Z,0.80
2022-09-21T11:59:00.824Z,0.38
2022-09-21T12:04:27.049Z,0.50
2022-09-21T12:10:06.302Z,0.57
2022-09-21T12:15:20.802Z,0.40
2022-09-21T12:20:33.252Z,0.85
2022-09-21T12:25:47.728Z,0.35
2022-09-21T12:31:00.644Z,0.90
2022-09-21T12:36:10.038Z,0.82
2022-09-21T12:41:19.958Z,0.75
2022-09-21T12:46:30.786Z,0.70
2022-09-21T12:51:38.203Z,0.60
2022-09-21T12:56:46.851Z,0.95
2022-09-21T13:01:57.588Z,0.85
2022-09-21T13:12:19.341Z,0.60
2022-09-21T13:17:29.109Z,0.40
2022-09-21T13:22:34.778Z,0.80
2022-09-21T13:28:09.507Z,0.80
2022-09-21T13:33:40.872Z,1.17
2022-09-21T13:39:04.734Z,0.70
2022-09-21T13:44:21.453Z,0.80
2022-09-21T13:49:50.999Z,0.40
2022-09-21T13:54:57.671Z,0.60
2022-09-21T14:00:09.110Z,0.75
2022-09-21T14:05:29.093Z,0.60
2022-09-21T14:10:36.688Z,0.60
2022-09-21T14:15:41.327Z,0.50
2022-09-21T14:21:10.064Z,0.40
2022-09-21T14:26:34.709Z,0.57
2022-09-21T14:31:40.294Z,0.45
2022-09-21T14:36:50.151Z,0.60
2022-09-21T14:41:56.849Z,0.70
2022-09-21T14:47:34.154Z,0.70
2022-09-21T14:52:50.810Z,0.70
2022-09-21T14:58:09.593Z,3.00
2022-09-21T15:03:40.182Z,0.80
2022-09-21T15:09:17.712Z,0.63
2022-09-21T15:14:28.432Z,0.60
2022-09-21T15:19:37.984Z,0.60
2022-09-21T15:24:51.989Z,0.70
2022-09-21T15:29:57.712Z,0.70
2022-09-21T15:35:02.593Z,0.60
2022-09-21T15:40:17.997Z,0.60
2022-09-21T15:45:22.642Z,0.73
2022-09-21T15:50:32.090Z,0.80
2022-09-21T15:55:37.717Z,0.57
2022-09-21T16:00:41.253Z,0.70
2022-09-21T16:05:47.950Z,0.93
2022-09-21T16:10:56.217Z,0.70
2022-09-21T16:16:04.044Z,0.73
2022-09-21T16:21:19.873Z,0.68
2022-09-21T16:26:29.886Z,0.68
2022-09-21T16:31:37.450Z,0.30
2022-09-21T16:36:47.342Z,0.70
2022-09-21T16:42:00.142Z,0.52
2022-09-21T16:47:05.086Z,0.50
2022-09-21T16:52:08.953Z,0.60
2022-09-21T16:57:14.454Z,1.70
2022-09-21T17:02:19.510Z,0.50
2022-09-21T17:07:23.137Z,0.68
2022-09-21T17:12:30.034Z,0.57
2022-09-21T17:17:36.080Z,0.60
2022-09-21T17:22:40.041Z,0.65
2022-09-21T17:27:49.200Z,0.60
2022-09-21T17:32:53.241Z,0.82
2022-09-21T17:37:57.147Z,0.85
2022-09-21T17:43:15.149Z,0.95
2022-09-21T17:48:20.928Z,0.85
2022-09-21T17:53:38.036Z,0.60
2022-09-21T17:58:49.841Z,1.23
2022-09-21T18:03:54.271Z,1.20
2022-09-21T18:08:58.722Z,1.30
2022-09-21T18:14:12.570Z,1.45
2022-09-21T18:19:45.533Z,2.00
2022-09-21T18:24:50.051Z,1.40
2022-09-21T18:29:55.698Z,2.90
2022-09-21T18:35:27.539Z,2.30
2022-09-21T18:40:38.368Z,2.10
2022-09-21T18:45:49.275Z,3.28
2022-09-21T18:51:01.265Z,2.55
2022-09-21T18:56:05.894Z,3.70
2022-09-21T19:01:12.852Z,4.38
2022-09-21T19:06:27.492Z,3.60
2022-09-21T19:11:38.275Z,3.30
2022-09-21T19:16:51.854Z,3.65
2022-09-21T19:21:59.896Z,3.55
2022-09-21T19:27:15.105Z,3.30
2022-09-21T19:32:32.613Z,3.42
2022-09-21T19:37:36.552Z,3.40
2022-09-21T19:42:52.383Z,3.45
2022-09-21T19:48:03.709Z,8.38
2022-09-21T19:58:47.004Z,6.07
2022-09-21T20:03:52.537Z,5.47
2022-09-21T20:09:05.594Z,4.38
2022-09-21T20:14:23.972Z,5.57
2022-09-21T20:19:44.071Z,5.05
2022-09-21T20:24:55.322Z,4.10
2022-09-21T20:35:03.889Z,4.32
2022-09-21T20:40:09.635Z,5.40
2022-09-21T20:45:14.327Z,4.60
2022-09-21T20:50:20.792Z,4.53
2022-09-21T20:55:25.366Z,4.93
2022-09-21T21:00:29.186Z,4.28
2022-09-21T21:05:34.067Z,4.63
2022-09-21T21:10:38.182Z,4.30
2022-09-21T21:15:41.709Z,4.82
2022-09-21T21:20:48.979Z,6.07
2022-09-21T21:25:52.719Z,7.85
2022-09-21T21:30:56.901Z,4.45
2022-09-21T21:36:06.573Z,4.72
2022-09-21T21:41:12.800Z,4.88
2022-09-21T21:46:17.516Z,4.68
2022-09-21T21:51:22.544Z,4.13
2022-09-21T21:56:26.587Z,5.05
2022-09-21T22:01:31.198Z,4.43
2022-09-21T22:06:38.102Z,4.50
2022-09-21T22:11:41.600Z,3.47
2022-09-21T22:16:45.069Z,4.93
2022-09-21T22:21:54.010Z,4.18
2022-09-21T22:26:59.272Z,4.55
2022-09-21T22:32:03.462Z,4.95
2022-09-21T22:37:08.430Z,5.25
2022-09-21T22:42:12.068Z,5.35
2022-09-21T22:47:15.616Z,4.90
2022-09-21T22:52:20.470Z,4.57
2022-09-21T22:57:23.918Z,4.00
2022-09-21T23:02:27.851Z,4.80
2022-09-21T23:07:33.336Z,4.75
2022-09-21T23:12:37.308Z,4.60
2022-09-21T23:17:40.852Z,4.78
2022-09-21T23:22:45.720Z,4.82
2022-09-21T23:27:49.231Z,5.68
2022-09-21T23:32:52.706Z,4.40
2022-09-21T23:37:57.598Z,5.13
2022-09-21T23:43:01.149Z,4.75
2022-09-21T23:48:04.758Z,5.30
2022-09-21T23:53:09.588Z,4.82
2022-09-21T23:58:13.282Z,5.10
